createdAt,value
2023-02-05T00:04:10.368Z,22.33
2023-02-05T00:06:39.526Z,19.17
2023-02-05T00:09:11.043Z,19.25
2023-02-05T00:11:59.203Z,19.00
2023-02-05T00:14:28.516Z,17.33
2023-02-05T00:16:57.914Z,17.77
2023-02-05T00:20:01.069Z,20.08
2023-02-05T00:22:32.438Z,26.77
2023-02-05T00:25:02.145Z,20.88
2023-02-05T00:27:35.641Z,19.25
2023-02-05T00:33:32.011Z,20.48
2023-02-05T00:36:25.574Z,29.65
2023-02-05T00:39:02.868Z,22.45
2023-02-05T00:41:53.346Z,24.50
2023-02-05T00:44:24.944Z,18.05
2023-02-05T00:47:22.642Z,19.65
2023-02-05T00:49:53.739Z,17.15
2023-02-05T00:52:39.328Z,18.60
2023-02-05T00:55:41.722Z,17.00
2023-02-05T00:58:17.783Z,17.05
2023-02-05T01:01:24.872Z,15.55
2023-02-05T01:04:32.057Z,15.50
2023-02-05T01:07:38.428Z,16.02
2023-02-05T01:13:30.924Z,18.52
2023-02-05T01:16:40.296Z,29.65
2023-02-05T01:19:18.259Z,18.83
2023-02-05T01:21:50.475Z,15.70
2023-02-05T01:24:26.637Z,15.23
2023-02-05T01:27:02.757Z,15.67
2023-02-05T01:29:41.420Z,15.95
2023-02-05T01:32:14.439Z,13.82
2023-02-05T01:34:54.901Z,13.45
2023-02-05T01:38:01.000Z,13.05
2023-02-05T01:40:38.209Z,20.83
2023-02-05T01:43:17.103Z,32.35
2023-02-05T01:49:06.093Z,22.98
2023-02-05T01:51:38.397Z,25.00
2023-02-05T01:54:11.427Z,23.88
2023-02-05T01:56:55.217Z,24.02
2023-02-05T01:59:29.600Z,25.15
2023-02-05T02:02:06.939Z,26.05
2023-02-05T02:04:41.518Z,22.50
2023-02-05T02:07:15.745Z,24.23
2023-02-05T02:09:50.526Z,27.02
2023-02-05T02:12:25.273Z,24.08
2023-02-05T02:15:01.126Z,15.85
2023-02-05T02:17:42.145Z,15.48
2023-02-05T02:20:26.102Z,23.38
2023-02-05T02:23:29.083Z,16.50
2023-02-05T02:26:44.243Z,14.30
2023-02-05T02:29:21.631Z,12.82
2023-02-05T02:32:15.290Z,19.17
2023-02-05T02:35:01.232Z,16.80
2023-02-05T02:38:03.216Z,14.70
2023-02-05T02:40:39.404Z,15.30
2023-02-05T02:43:29.109Z,17.48
2023-02-05T02:46:12.097Z,18.55
2023-02-05T02:48:47.603Z,17.58
2023-02-05T02:51:30.196Z,16.65
2023-02-05T02:54:09.843Z,17.58
2023-02-05T02:56:42.810Z,19.05
2023-02-05T02:59:36.637Z,24.20
2023-02-05T03:02:13.564Z,18.30
2023-02-05T03:05:03.626Z,12.48
2023-02-05T03:07:39.500Z,12.32
2023-02-05T03:10:31.604Z,12.65
2023-02-05T03:13:03.024Z,12.40
2023-02-05T03:15:33.657Z,11.65
2023-02-05T03:18:06.309Z,10.73
2023-02-05T03:20:46.124Z,10.02
2023-02-05T03:23:27.968Z,9.63
2023-02-05T03:26:03.304Z,9.95
2023-02-05T03:28:44.811Z,10.02
2023-02-05T03:31:32.913Z,10.45
2023-02-05T03:34:38.006Z,10.57
2023-02-05T03:37:29.085Z,10.45
2023-02-05T03:40:30.169Z,9.38
2023-02-05T03:43:13.909Z,9.85
2023-02-05T03:45:46.533Z,8.38
2023-02-05T03:48:34.896Z,8.85
2023-02-05T03:51:29.911Z,9.05
2023-02-05T03:54:28.466Z,7.75
2023-02-05T03:57:08.815Z,8.52
2023-02-05T03:59:44.046Z,8.70
2023-02-05T04:02:18.231Z,8.57
2023-02-05T04:04:49.047Z,8.68
2023-02-05T04:07:20.764Z,7.00
2023-02-05T04:09:50.504Z,7.40
2023-02-05T04:12:21.011Z,7.40
2023-02-05T04:14:54.029Z,8.82
2023-02-05T04:17:22.144Z,10.38
2023-02-05T04:19:54.474Z,10.50
2023-02-05T04:22:24.808Z,8.90
2023-02-05T04:24:54.955Z,9.82
2023-02-05T04:27:24.842Z,10.75
2023-02-05T04:29:54.073Z,12.10
2023-02-05T04:32:22.212Z,11.60
2023-02-05T04:34:51.924Z,11.93
2023-02-05T04:37:22.209Z,12.05
2023-02-05T04:39:55.260Z,10.23
2023-02-05T04:42:24.555Z,11.20
2023-02-05T04:44:56.373Z,10.75
2023-02-05T04:47:25.759Z,9.50
2023-02-05T04:49:57.387Z,10.27
2023-02-05T04:52:25.815Z,10.02
2023-02-05T04:54:55.071Z,8.68
2023-02-05T04:57:25.693Z,9.18
2023-02-05T04:59:59.105Z,9.10
2023-02-05T05:02:37.683Z,10.27
2023-02-05T05:05:08.985Z,9.48
2023-02-05T05:07:39.900Z,9.90
2023-02-05T05:10:15.157Z,8.80
2023-02-05T05:12:44.434Z,9.88
2023-02-05T05:15:14.197Z,10.45
2023-02-05T05:17:56.162Z,11.82
2023-02-05T05:20:32.940Z,9.98
2023-02-05T05:23:03.011Z,10.75
2023-02-05T05:25:35.588Z,9.82
2023-02-05T05:28:05.740Z,13.82
2023-02-05T05:30:57.871Z,10.77
2023-02-05T05:33:35.328Z,10.07
2023-02-05T05:36:07.284Z,10.55
2023-02-05T05:38:41.818Z,8.68
2023-02-05T05:41:39.128Z,10.25
2023-02-05T05:44:12.043Z,12.25
2023-02-05T05:46:42.078Z,29.58
2023-02-05T05:49:13.068Z,41.92
2023-02-05T05:51:44.300Z,9.00
2023-02-05T05:54:14.356Z,42.13
2023-02-05T05:56:55.785Z,60.53
2023-02-05T05:59:32.608Z,11.45
2023-02-05T06:02:02.761Z,13.85
2023-02-05T06:04:36.090Z,15.32
2023-02-05T06:07:11.923Z,80.93
2023-02-05T06:09:40.622Z,20.02
2023-02-05T06:12:11.854Z,10.80
2023-02-05T06:14:47.440Z,10.15
2023-02-05T06:17:22.095Z,8.67
2023-02-05T06:19:52.041Z,10.82
2023-02-05T06:22:21.196Z,9.75
2023-02-05T06:40:50.047Z,13.52
2023-02-05T06:43:20.284Z,9.88
2023-02-05T06:45:50.014Z,10.82
2023-02-05T06:48:20.323Z,10.57
2023-02-05T06:50:49.602Z,10.40
2023-02-05T06:53:19.426Z,9.07
2023-02-05T06:55:53.391Z,13.73
2023-02-05T06:58:22.803Z,16.40
2023-02-05T07:00:51.217Z,12.85
2023-02-05T07:03:21.030Z,14.55
2023-02-05T07:05:51.723Z,12.52
2023-02-05T07:08:21.639Z,41.13
2023-02-05T07:10:50.335Z,16.00
2023-02-05T07:13:21.808Z,11.32
2023-02-05T07:15:51.455Z,10.45
2023-02-05T07:18:28.181Z,12.73
2023-02-05T07:21:00.349Z,12.70
2023-02-05T07:23:29.146Z,21.08
2023-02-05T07:26:13.577Z,15.82
2023-02-05T07:28:50.806Z,15.88
2023-02-05T07:31:20.377Z,27.27
2023-02-05T07:33:49.486Z,98.47
2023-02-05T07:36:19.392Z,79.55
2023-02-05T07:38:50.292Z,43.83
2023-02-05T07:41:19.526Z,41.17
2023-02-05T07:43:52.939Z,49.50
2023-02-05T07:46:28.454Z,50.42
2023-02-05T07:48:57.171Z,46.55
2023-02-05T07:51:31.328Z,48.47
2023-02-05T07:54:02.263Z,51.78
2023-02-05T07:56:37.212Z,49.50
2023-02-05T07:59:21.063Z,82.88
2023-02-05T08:01:56.982Z,46.80
2023-02-05T08:04:34.530Z,43.15
2023-02-05T08:07:04.116Z,51.40
2023-02-05T08:09:34.498Z,48.90
2023-02-05T08:12:04.975Z,44.35
2023-02-05T08:14:38.566Z,37.65
2023-02-05T08:17:10.273Z,41.00
2023-02-05T08:19:45.601Z,44.70
2023-02-05T08:22:15.515Z,25.33
2023-02-05T08:25:07.342Z,11.35
2023-02-05T08:27:37.530Z,10.38
2023-02-05T08:30:18.813Z,10.05
2023-02-05T08:32:53.047Z,8.23
2023-02-05T08:35:28.270Z,10.80
2023-02-05T08:38:05.189Z,18.50
2023-02-05T08:40:38.597Z,21.60
2023-02-05T08:43:08.606Z,16.63
2023-02-05T08:45:40.802Z,17.35
2023-02-05T08:48:10.088Z,14.38
2023-02-05T08:50:40.374Z,12.55
2023-02-05T08:53:09.186Z,14.40
2023-02-05T08:55:46.409Z,14.48
2023-02-05T08:58:18.323Z,15.57
2023-02-05T09:00:49.447Z,19.27
2023-02-05T09:03:19.860Z,20.08
2023-02-05T09:05:52.981Z,19.95
2023-02-05T09:08:31.162Z,21.38
2023-02-05T09:11:02.359Z,22.83
2023-02-05T09:13:50.534Z,19.00
2023-02-05T09:16:20.448Z,17.17
2023-02-05T09:21:04.016Z,17.05
2023-02-05T09:23:43.541Z,15.93
2023-02-05T09:26:14.094Z,15.68
2023-02-05T09:28:43.470Z,13.27
2023-02-05T09:31:17.138Z,16.35
2023-02-05T09:33:47.165Z,14.20
2023-02-05T09:36:23.388Z,15.50
2023-02-05T09:43:57.801Z,10.45
2023-02-05T09:46:56.145Z,11.48
2023-02-05T09:50:00.602Z,12.80
2023-02-05T09:52:37.665Z,8.93
2023-02-05T09:55:23.111Z,10.20
2023-02-05T09:57:57.001Z,19.45
2023-02-05T10:01:01.445Z,15.27
2023-02-05T10:03:38.179Z,40.08
2023-02-05T10:06:48.779Z,29.27
2023-02-05T10:10:40.654Z,22.20
2023-02-05T10:13:30.963Z,66.57
2023-02-05T10:16:47.445Z,17.52
2023-02-05T10:19:46.160Z,12.85
2023-02-05T10:23:22.576Z,10.85
2023-02-05T10:25:57.627Z,13.82
2023-02-05T10:29:23.228Z,10.23
2023-02-05T10:37:57.952Z,9.43
2023-02-05T10:40:39.721Z,11.95
2023-02-05T10:43:16.933Z,29.38
2023-02-05T10:46:01.651Z,16.75
2023-02-05T10:49:00.140Z,19.75
2023-02-05T10:51:40.796Z,22.48
2023-02-05T10:54:41.108Z,11.38
2023-02-05T10:57:21.082Z,12.00
2023-02-05T11:00:10.654Z,10.55
2023-02-05T11:02:49.878Z,12.60
2023-02-05T11:05:36.529Z,16.40
2023-02-05T11:08:26.599Z,16.55
2023-02-05T11:11:07.537Z,15.45
2023-02-05T11:13:52.943Z,26.27
2023-02-05T11:16:23.822Z,22.63
2023-02-05T11:19:13.991Z,21.77
2023-02-05T11:22:02.396Z,18.73
2023-02-05T11:24:44.102Z,20.55
2023-02-05T11:27:16.073Z,18.77
2023-02-05T11:29:50.589Z,22.52
2023-02-05T11:32:44.050Z,14.52
2023-02-05T11:35:23.930Z,12.15
2023-02-05T11:38:39.995Z,12.88
2023-02-05T11:41:11.656Z,23.85
2023-02-05T11:43:51.622Z,12.45
2023-02-05T11:46:24.604Z,12.13
2023-02-05T11:49:00.930Z,12.68
2023-02-05T11:51:35.248Z,13.63
2023-02-05T11:54:30.194Z,19.85
2023-02-05T11:57:18.022Z,31.20
2023-02-05T12:00:01.425Z,81.57
2023-02-05T12:03:19.179Z,27.65
2023-02-05T12:06:02.457Z,22.67
2023-02-05T12:09:04.811Z,45.58
2023-02-05T12:13:11.693Z,34.70
2023-02-05T12:16:03.554Z,20.13
2023-02-05T12:19:20.605Z,11.27
2023-02-05T12:22:06.750Z,14.30
2023-02-05T12:24:58.032Z,22.83
2023-02-05T12:27:55.635Z,35.95
2023-02-05T12:31:03.983Z,15.60
2023-02-05T12:45:48.440Z,10.45
2023-02-05T12:51:53.724Z,21.98
2023-02-05T12:56:08.463Z,46.25
2023-02-05T12:59:20.408Z,12.20
2023-02-05T13:02:34.727Z,6.50
2023-02-05T13:05:23.395Z,4.35
2023-02-05T13:12:48.056Z,17.63
2023-02-05T13:15:17.861Z,6.70
2023-02-05T13:18:12.143Z,29.25
2023-02-05T13:21:04.849Z,33.55
2023-02-05T13:23:58.616Z,50.05
2023-02-05T13:26:59.359Z,103.70
2023-02-05T13:29:33.499Z,45.30
2023-02-05T13:32:15.582Z,287.15
2023-02-05T13:34:46.205Z,56.72
2023-02-05T13:37:59.697Z,22.92
2023-02-05T13:40:56.296Z,19.50
2023-02-05T13:44:00.541Z,20.40
2023-02-05T13:46:51.055Z,14.23
2023-02-05T13:50:13.453Z,19.95
2023-02-05T13:53:02.631Z,19.75
2023-02-05T13:55:50.144Z,18.67
2023-02-05T13:58:25.437Z,17.35
2023-02-05T14:00:53.953Z,35.30
2023-02-05T14:03:35.864Z,24.85
2023-02-05T14:06:38.507Z,42.40
2023-02-05T14:09:12.323Z,17.67
2023-02-05T14:11:58.082Z,17.38
2023-02-05T14:14:38.818Z,18.10
2023-02-05T14:43:39.712Z,19.30
2023-02-05T14:46:26.137Z,14.48
2023-02-05T14:48:58.382Z,22.33
2023-02-05T14:51:30.273Z,17.13
2023-02-05T14:54:09.788Z,12.93
2023-02-05T14:56:49.477Z,20.15
2023-02-05T14:59:29.375Z,27.27
2023-02-05T15:02:03.650Z,50.38
2023-02-05T15:04:38.435Z,73.80
2023-02-05T15:07:13.392Z,60.10
2023-02-05T15:09:42.589Z,32.38
2023-02-05T15:12:31.931Z,40.55
2023-02-05T15:15:27.976Z,30.42
2023-02-05T15:22:52.260Z,30.38
2023-02-05T15:25:33.663Z,34.03
2023-02-05T15:28:08.504Z,47.05
2023-02-05T15:30:50.371Z,25.50
2023-02-05T15:33:41.986Z,27.60
2023-02-05T15:36:47.082Z,23.98
2023-02-05T15:39:43.455Z,28.63
2023-02-05T15:42:30.895Z,26.95
2023-02-05T15:45:23.744Z,26.13
2023-02-05T15:48:04.202Z,26.05
2023-02-05T15:50:43.264Z,22.33
2023-02-05T15:53:47.155Z,23.70
2023-02-05T15:56:31.982Z,24.23
2023-02-05T15:59:13.067Z,22.48
2023-02-05T16:02:04.120Z,25.15
2023-02-05T16:05:09.807Z,45.08
2023-02-05T16:07:43.655Z,44.13
2023-02-05T16:10:16.935Z,47.30
2023-02-05T16:13:06.426Z,57.45
2023-02-05T16:16:00.237Z,59.67
2023-02-05T16:18:29.396Z,69.80
2023-02-05T16:21:04.917Z,72.68
2023-02-05T16:23:41.901Z,57.08
2023-02-05T16:26:26.500Z,48.17
2023-02-05T16:29:02.538Z,51.53
2023-02-05T16:31:38.835Z,32.05
2023-02-05T16:34:21.697Z,37.05
2023-02-05T16:36:53.459Z,46.63
2023-02-05T16:39:28.959Z,52.10
2023-02-05T16:42:11.055Z,45.65
2023-02-05T16:44:40.834Z,48.53
2023-02-05T16:47:18.324Z,49.92
2023-02-05T16:49:50.700Z,46.25
2023-02-05T16:52:36.396Z,43.45
2023-02-05T16:55:48.871Z,52.30
2023-02-05T16:58:23.132Z,45.20
2023-02-05T17:00:57.784Z,45.35
2023-02-05T17:03:29.484Z,47.13
2023-02-05T17:06:07.987Z,57.00
2023-02-05T17:08:39.100Z,50.83
2023-02-05T17:11:34.341Z,46.60
2023-02-05T17:14:16.134Z,40.83
2023-02-05T17:16:53.975Z,40.53
2023-02-05T17:19:43.120Z,39.08
2023-02-05T17:22:16.882Z,36.38
2023-02-05T17:24:48.004Z,37.75
2023-02-05T17:27:31.532Z,35.80
2023-02-05T17:30:03.302Z,35.47
2023-02-05T17:32:34.851Z,33.08
2023-02-05T17:35:03.333Z,30.52
2023-02-05T17:37:34.856Z,32.40
2023-02-05T17:40:03.460Z,31.27
2023-02-05T17:42:35.208Z,31.13
2023-02-05T17:45:03.744Z,30.48
2023-02-05T17:47:38.213Z,30.00
2023-02-05T17:50:06.741Z,29.90
2023-02-05T17:52:37.379Z,28.90
2023-02-05T17:55:14.362Z,27.98
2023-02-05T17:57:45.779Z,28.70
2023-02-05T18:00:26.620Z,30.30
2023-02-05T18:02:57.935Z,29.98
2023-02-05T18:05:27.072Z,28.65
2023-02-05T18:07:59.847Z,27.50
2023-02-05T18:13:17.229Z,26.92
2023-02-05T18:21:39.560Z,27.73
2023-02-05T18:24:11.229Z,27.90
2023-02-05T18:26:45.634Z,28.45
2023-02-05T18:29:17.175Z,29.67
2023-02-05T18:31:48.712Z,32.95
2023-02-05T18:34:18.511Z,34.38
2023-02-05T18:36:55.909Z,35.92
2023-02-05T18:40:20.968Z,35.60
2023-02-05T18:42:56.008Z,35.80
2023-02-05T18:45:27.019Z,37.38
2023-02-05T18:47:56.140Z,50.92
2023-02-05T18:50:32.110Z,83.70
2023-02-05T18:53:01.987Z,93.40
2023-02-05T18:55:38.140Z,76.78
2023-02-05T18:58:07.629Z,90.03
2023-02-05T19:00:39.907Z,53.38
2023-02-05T19:03:09.874Z,47.05
2023-02-05T19:05:39.178Z,53.70
2023-02-05T19:08:07.749Z,64.40
2023-02-05T19:10:44.206Z,80.00
2023-02-05T19:13:13.115Z,110.45
2023-02-05T19:15:42.560Z,94.35
2023-02-05T19:18:10.673Z,77.53
2023-02-05T19:20:41.112Z,70.78
2023-02-05T19:23:11.282Z,60.47
2023-02-05T19:27:13.716Z,49.30
2023-02-05T19:29:45.683Z,46.63
2023-02-05T19:32:13.932Z,52.25
2023-02-05T19:34:47.557Z,54.90
2023-02-05T19:37:21.079Z,52.40
2023-02-05T19:39:51.041Z,58.67
2023-02-05T19:42:19.739Z,53.75
2023-02-05T19:44:49.123Z,52.50
2023-02-05T19:47:19.324Z,53.70
2023-02-05T19:49:54.604Z,59.70
2023-02-05T19:52:27.000Z,55.67
2023-02-05T19:55:10.244Z,57.60
2023-02-05T19:57:38.507Z,109.00
2023-02-05T20:02:58.768Z,96.55
2023-02-05T20:08:27.466Z,104.10
2023-02-05T20:11:22.451Z,99.75
2023-02-05T20:13:58.055Z,83.55
2023-02-05T20:16:32.613Z,74.75
2023-02-05T20:19:23.910Z,70.63
2023-02-05T20:22:05.121Z,62.17
2023-02-05T20:24:35.598Z,65.35
2023-02-05T20:27:05.187Z,60.83
2023-02-05T20:29:53.330Z,56.97
2023-02-05T20:32:26.489Z,62.42
2023-02-05T20:35:00.745Z,69.75
2023-02-05T20:37:37.017Z,71.03
2023-02-05T20:43:02.329Z,82.20
2023-02-05T20:45:51.767Z,58.65
2023-02-05T20:48:28.723Z,63.47
2023-02-05T20:51:08.290Z,62.17
2023-02-05T20:53:44.098Z,64.95
2023-02-05T20:56:29.411Z,68.80
2023-02-05T21:01:47.176Z,81.43
2023-02-05T21:04:30.809Z,84.53
2023-02-05T21:07:04.508Z,86.43
2023-02-05T21:09:40.293Z,99.85
2023-02-05T21:12:10.584Z,83.68
2023-02-05T21:14:47.967Z,87.32
2023-02-05T21:17:36.203Z,104.57
2023-02-05T21:20:16.937Z,273.60
2023-02-05T21:22:46.281Z,124.53
2023-02-05T21:25:16.212Z,95.78
2023-02-05T21:27:48.035Z,93.70
2023-02-05T21:30:51.273Z,90.32
2023-02-05T21:33:30.597Z,101.97
2023-02-05T21:36:10.163Z,104.53
2023-02-05T21:38:43.856Z,103.63
2023-02-05T21:41:20.502Z,102.10
2023-02-05T21:43:59.357Z,88.97
2023-02-05T21:46:48.417Z,80.57
2023-02-05T21:49:22.197Z,77.60
2023-02-05T21:51:55.355Z,66.90
2023-02-05T21:54:29.223Z,62.13
2023-02-05T21:57:11.490Z,81.65
2023-02-05T21:59:42.042Z,80.07
2023-02-05T22:02:13.547Z,92.53
2023-02-05T22:04:47.074Z,77.35
2023-02-05T22:07:22.234Z,65.23
2023-02-05T22:10:07.343Z,58.63
2023-02-05T22:12:46.325Z,58.15
2023-02-05T22:15:14.976Z,55.03
2023-02-05T22:27:57.876Z,53.70
2023-02-05T22:30:43.593Z,62.25
2023-02-05T22:33:11.938Z,80.00
2023-02-05T22:36:18.829Z,70.25
2023-02-05T22:38:49.170Z,52.67
2023-02-05T22:41:53.041Z,49.03
2023-02-05T22:44:22.296Z,53.38
2023-02-05T22:46:55.688Z,58.38
2023-02-05T22:49:51.796Z,65.03
2023-02-05T22:52:33.343Z,69.35
2023-02-05T22:55:05.365Z,76.50
2023-02-05T22:58:11.479Z,84.13
2023-02-05T23:03:29.452Z,79.10
2023-02-05T23:13:17.176Z,59.72
2023-02-05T23:16:36.382Z,59.28
2023-02-05T23:19:18.324Z,59.50
2023-02-05T23:21:49.150Z,59.05
2023-02-05T23:36:03.360Z,60.17
2023-02-05T23:38:54.672Z,60.97
2023-02-05T23:41:39.847Z,64.50
2023-02-05T23:44:19.822Z,63.95
2023-02-05T23:46:50.924Z,64.30
2023-02-05T23:49:53.108Z,66.07
2023-02-05T23:52:31.052Z,74.35
2023-02-05T23:58:09.087Z,75.97
